createdAt,value
2023-01-18T00:00:35.422Z,100.00
2023-01-18T00:03:03.314Z,100.00
2023-01-18T00:05:31.451Z,100.00
2023-01-18T00:08:00.638Z,100.00
2023-01-18T00:10:28.605Z,100.00
2023-01-18T00:12:56.995Z,100.00
2023-01-18T00:15:25.015Z,100.00
2023-01-18T00:17:52.927Z,100.00
2023-01-18T00:20:23.395Z,100.00
2023-01-18T00:22:52.302Z,100.00
2023-01-18T00:25:24.054Z,100.00
2023-01-18T00:27:53.540Z,100.00
2023-01-18T00:30:24.027Z,100.00
2023-01-18T00:32:56.037Z,100.00
2023-01-18T00:35:25.006Z,100.00
2023-01-18T00:37:54.361Z,100.00
2023-01-18T00:40:28.445Z,100.00
2023-01-18T00:43:18.890Z,100.00
2023-01-18T00:45:47.010Z,100.00
2023-01-18T00:48:14.879Z,100.00
2023-01-18T00:50:42.713Z,100.00
2023-01-18T00:53:10.787Z,100.00
2023-01-18T00:55:39.977Z,100.00
2023-01-18T00:58:07.870Z,100.00
2023-01-18T01:00:35.926Z,100.00
2023-01-18T01:03:03.786Z,100.00
2023-01-18T01:05:49.110Z,100.00
2023-01-18T01:08:17.956Z,100.00
2023-01-18T01:10:48.894Z,100.00
2023-01-18T01:13:36.275Z,100.00
2023-01-18T01:16:24.032Z,100.00
2023-01-18T01:19:09.955Z,100.00
2023-01-18T01:21:55.271Z,100.00
2023-01-18T01:24:40.698Z,100.00
2023-01-18T01:27:10.725Z,100.00
2023-01-18T01:29:38.755Z,100.00
2023-01-18T01:32:07.131Z,100.00
2023-01-18T01:34:36.032Z,100.00
2023-01-18T01:37:04.267Z,100.00
2023-01-18T01:39:32.222Z,100.00
2023-01-18T01:42:00.119Z,100.00
2023-01-18T01:44:56.596Z,100.00
2023-01-18T01:47:33.515Z,100.00
2023-01-18T01:50:07.963Z,100.00
2023-01-18T01:52:39.135Z,100.00
2023-01-18T01:55:13.201Z,100.00
2023-01-18T01:57:47.939Z,100.00
2023-01-18T02:00:20.325Z,100.00
2023-01-18T02:02:52.558Z,100.00
2023-01-18T02:05:21.163Z,100.00
2023-01-18T02:07:49.664Z,100.00
2023-01-18T02:10:18.068Z,100.00
2023-01-18T02:12:49.350Z,100.00
2023-01-18T02:15:20.196Z,100.00
2023-01-18T02:18:02.268Z,100.00
2023-01-18T02:20:56.197Z,100.00
2023-01-18T02:23:35.110Z,100.00
2023-01-18T02:26:41.556Z,100.00
2023-01-18T02:29:17.508Z,100.00
2023-01-18T02:31:58.118Z,100.00
2023-01-18T02:34:34.462Z,100.00
2023-01-18T02:37:07.686Z,100.00
2023-01-18T02:39:42.432Z,100.00
2023-01-18T02:42:36.843Z,100.00
2023-01-18T02:45:42.657Z,100.00
2023-01-18T02:48:11.538Z,100.00
2023-01-18T02:50:39.582Z,100.00
2023-01-18T02:53:07.496Z,100.00
2023-01-18T02:55:42.916Z,100.00
2023-01-18T02:58:17.531Z,100.00
2023-01-18T03:00:51.335Z,100.00
2023-01-18T03:03:22.439Z,100.00
2023-01-18T03:05:52.638Z,100.00
2023-01-18T03:08:27.377Z,100.00
2023-01-18T03:11:01.732Z,100.00
2023-01-18T03:13:42.795Z,100.00
2023-01-18T03:16:19.735Z,100.00
2023-01-18T03:19:03.757Z,100.00
2023-01-18T03:21:51.508Z,100.00
2023-01-18T03:24:20.562Z,100.00
2023-01-18T03:26:54.241Z,100.00
2023-01-18T03:29:41.446Z,100.00
2023-01-18T03:32:32.145Z,100.00
2023-01-18T03:35:07.818Z,100.00
2023-01-18T03:37:38.958Z,100.00
2023-01-18T03:40:12.004Z,100.00
2023-01-18T03:42:46.348Z,100.00
2023-01-18T03:45:20.579Z,100.00
2023-01-18T03:47:51.166Z,100.00
2023-01-18T03:50:20.450Z,100.00
2023-01-18T03:52:52.570Z,100.00
2023-01-18T03:55:25.424Z,100.00
2023-01-18T03:57:57.125Z,100.00
2023-01-18T04:00:25.703Z,100.00
2023-01-18T04:02:55.065Z,100.00
2023-01-18T04:05:23.190Z,100.00
2023-01-18T04:07:51.686Z,100.00
2023-01-18T04:10:19.772Z,100.00
2023-01-18T04:12:47.740Z,100.00
2023-01-18T04:15:15.935Z,100.00
2023-01-18T04:17:43.816Z,100.00
2023-01-18T04:20:13.735Z,100.00
2023-01-18T04:22:41.669Z,100.00
2023-01-18T04:25:10.314Z,100.00
2023-01-18T04:27:38.290Z,100.00
2023-01-18T04:30:07.181Z,100.00
2023-01-18T04:32:36.330Z,100.00
2023-01-18T04:35:04.284Z,100.00
2023-01-18T04:37:34.219Z,100.00
2023-01-18T04:40:02.178Z,100.00
2023-01-18T04:42:30.669Z,100.00
2023-01-18T04:44:59.898Z,100.00
2023-01-18T04:47:29.045Z,100.00
2023-01-18T04:49:57.583Z,100.00
2023-01-18T04:52:26.911Z,100.00
2023-01-18T04:54:56.215Z,100.00
2023-01-18T04:57:24.225Z,100.00
2023-01-18T04:59:52.194Z,100.00
2023-01-18T05:02:20.237Z,100.00
2023-01-18T05:04:48.191Z,100.00
2023-01-18T05:07:16.180Z,100.00
2023-01-18T05:09:44.041Z,100.00
2023-01-18T05:12:13.351Z,100.00
2023-01-18T05:14:41.260Z,100.00
2023-01-18T05:17:09.085Z,100.00
2023-01-18T05:19:37.039Z,100.00
2023-01-18T05:22:04.926Z,100.00
2023-01-18T05:24:32.827Z,100.00
2023-01-18T05:27:00.763Z,100.00
2023-01-18T05:29:30.038Z,100.00
2023-01-18T05:31:57.873Z,100.00
2023-01-18T05:34:27.366Z,100.00
2023-01-18T05:36:55.395Z,100.00
2023-01-18T05:39:23.673Z,100.00
2023-01-18T05:41:51.718Z,100.00
2023-01-18T05:44:19.630Z,100.00
2023-01-18T05:46:48.842Z,100.00
2023-01-18T05:49:16.943Z,100.00
2023-01-18T05:51:45.014Z,100.00
2023-01-18T05:54:13.344Z,100.00
2023-01-18T05:56:42.226Z,100.00
2023-01-18T05:59:10.304Z,100.00
2023-01-18T06:01:38.228Z,100.00
2023-01-18T06:04:07.786Z,100.00
2023-01-18T06:06:35.897Z,100.00
2023-01-18T06:09:04.050Z,100.00
2023-01-18T06:11:32.134Z,100.00
2023-01-18T06:14:00.212Z,100.00
2023-01-18T06:16:28.088Z,100.00
2023-01-18T06:18:55.993Z,100.00
2023-01-18T06:21:25.295Z,100.00
2023-01-18T06:23:53.208Z,100.00
2023-01-18T06:26:21.146Z,99.92
2023-01-18T06:28:49.077Z,100.00
2023-01-18T06:31:17.045Z,100.00
2023-01-18T06:33:45.490Z,100.00
2023-01-18T06:36:13.438Z,100.00
2023-01-18T06:38:42.669Z,100.00
2023-01-18T06:41:10.757Z,100.00
2023-01-18T06:43:38.672Z,100.00
2023-01-18T06:46:08.207Z,100.00
2023-01-18T06:48:36.594Z,100.00
2023-01-18T06:51:04.728Z,100.00
2023-01-18T06:53:32.576Z,100.00
2023-01-18T06:56:02.980Z,100.00
2023-01-18T06:58:32.829Z,100.00
2023-01-18T07:01:02.075Z,100.00
2023-01-18T07:03:31.595Z,100.00
2023-01-18T07:06:01.458Z,100.00
2023-01-18T07:08:31.436Z,100.00
2023-01-18T07:11:05.065Z,100.00
2023-01-18T07:13:33.156Z,100.00
2023-01-18T07:16:02.089Z,100.00
2023-01-18T07:18:31.391Z,100.00
2023-01-18T07:21:00.963Z,100.00
2023-01-18T07:23:29.484Z,100.00
2023-01-18T07:26:03.023Z,100.00
2023-01-18T07:28:31.971Z,100.00
2023-01-18T07:31:00.438Z,100.00
2023-01-18T07:33:29.153Z,100.00
2023-01-18T07:35:58.802Z,100.00
2023-01-18T07:38:27.368Z,100.00
2023-01-18T07:41:02.432Z,100.00
2023-01-18T07:43:32.071Z,100.00
2023-01-18T07:46:00.711Z,100.00
2023-01-18T07:48:29.402Z,100.00
2023-01-18T07:50:58.869Z,100.00
2023-01-18T07:53:27.933Z,100.00
2023-01-18T07:55:59.750Z,100.00
2023-01-18T07:58:28.621Z,100.00
2023-01-18T08:01:03.971Z,100.00
2023-01-18T08:03:31.978Z,100.00
2023-01-18T08:06:00.770Z,100.00
2023-01-18T08:08:29.201Z,100.00
2023-01-18T08:10:57.864Z,100.00
2023-01-18T08:13:27.482Z,100.00
2023-01-18T08:15:57.403Z,100.00
2023-01-18T08:18:25.366Z,100.00
2023-01-18T08:20:55.142Z,100.00
2023-01-18T08:23:23.462Z,100.00
2023-01-18T08:25:52.159Z,100.00
2023-01-18T08:28:20.318Z,100.00
2023-01-18T08:30:49.522Z,100.00
2023-01-18T08:33:18.853Z,100.00
2023-01-18T08:35:48.411Z,100.00
2023-01-18T08:38:17.801Z,100.00
2023-01-18T08:40:45.766Z,100.00
2023-01-18T08:43:13.754Z,100.00
2023-01-18T08:45:41.655Z,100.00
2023-01-18T08:48:11.936Z,100.00
2023-01-18T08:50:43.027Z,100.00
2023-01-18T08:53:10.943Z,100.00
2023-01-18T08:55:38.866Z,100.00
2023-01-18T08:58:07.077Z,100.00
2023-01-18T09:00:35.113Z,100.00
2023-01-18T09:03:03.648Z,100.00
2023-01-18T09:05:31.981Z,100.00
2023-01-18T09:08:01.861Z,100.00
2023-01-18T09:10:29.681Z,100.00
2023-01-18T09:12:58.043Z,100.00
2023-01-18T09:15:27.046Z,100.00
2023-01-18T09:17:54.846Z,99.77
2023-01-18T09:20:22.851Z,99.42
2023-01-18T09:22:50.757Z,98.85
2023-01-18T09:25:20.752Z,97.58
2023-01-18T09:27:48.714Z,97.06
2023-01-18T09:30:17.242Z,96.69
2023-01-18T09:32:45.144Z,96.55
2023-01-18T09:35:18.150Z,96.87
2023-01-18T09:37:46.550Z,97.36
2023-01-18T09:40:21.227Z,96.78
2023-01-18T09:42:51.619Z,96.85
2023-01-18T09:45:30.620Z,96.30
2023-01-18T09:48:03.536Z,96.53
2023-01-18T09:50:34.452Z,96.86
2023-01-18T09:53:16.439Z,96.70
2023-01-18T09:55:54.165Z,96.51
2023-01-18T09:58:43.377Z,96.25
2023-01-18T10:01:16.123Z,96.17
2023-01-18T10:03:55.719Z,96.53
2023-01-18T10:06:28.420Z,96.14
2023-01-18T10:09:01.825Z,96.32
2023-01-18T10:11:43.510Z,96.30
2023-01-18T10:14:19.004Z,96.17
2023-01-18T10:16:55.524Z,96.03
2023-01-18T10:19:27.785Z,95.92
2023-01-18T10:21:59.743Z,95.91
2023-01-18T10:24:46.525Z,97.19
2023-01-18T10:27:40.311Z,95.70
2023-01-18T10:30:29.249Z,95.20
2023-01-18T10:33:00.720Z,94.99
2023-01-18T10:35:32.571Z,95.19
2023-01-18T10:38:04.012Z,94.46
2023-01-18T10:40:31.968Z,93.67
2023-01-18T10:43:04.478Z,93.42
2023-01-18T10:45:34.590Z,92.84
2023-01-18T10:48:28.212Z,92.15
2023-01-18T10:50:57.900Z,92.15
2023-01-18T10:53:32.755Z,91.45
2023-01-18T10:56:06.310Z,91.63
2023-01-18T10:58:45.297Z,90.66
2023-01-18T11:01:18.102Z,90.36
2023-01-18T11:03:48.897Z,90.64
2023-01-18T11:06:19.305Z,90.36
2023-01-18T11:08:48.084Z,90.18
2023-01-18T11:11:19.839Z,89.72
2023-01-18T11:13:50.711Z,89.40
2023-01-18T11:16:21.002Z,89.35
2023-01-18T11:19:03.776Z,88.83
2023-01-18T11:21:46.304Z,88.88
2023-01-18T11:24:17.688Z,88.84
2023-01-18T11:26:55.570Z,88.32
2023-01-18T11:29:28.588Z,87.98
2023-01-18T11:32:01.977Z,87.65
2023-01-18T11:34:31.517Z,87.22
2023-01-18T11:37:01.777Z,87.28
2023-01-18T11:39:32.664Z,87.06
2023-01-18T11:42:22.545Z,85.91
2023-01-18T11:45:00.898Z,85.77
2023-01-18T11:47:35.790Z,85.44
2023-01-18T11:50:21.248Z,84.98
2023-01-18T11:52:54.770Z,84.77
2023-01-18T11:55:31.579Z,84.98
2023-01-18T11:58:01.118Z,85.08
2023-01-18T12:00:41.480Z,84.11
2023-01-18T12:03:25.569Z,83.98
2023-01-18T12:05:59.148Z,84.18
2023-01-18T12:08:40.911Z,83.98
2023-01-18T12:11:31.251Z,83.63
2023-01-18T12:14:03.585Z,83.63
2023-01-18T12:16:51.722Z,82.82
2023-01-18T12:19:34.898Z,83.64
2023-01-18T12:22:35.312Z,83.80
2023-01-18T12:25:21.786Z,83.26
2023-01-18T12:27:58.236Z,82.80
2023-01-18T12:30:46.702Z,82.62
2023-01-18T12:33:42.538Z,81.95
2023-01-18T12:36:30.188Z,81.64
2023-01-18T12:38:58.418Z,81.05
2023-01-18T12:41:52.218Z,80.09
2023-01-18T12:44:49.307Z,78.61
2023-01-18T12:47:36.584Z,78.56
2023-01-18T12:50:13.951Z,78.64
2023-01-18T12:52:47.765Z,78.03
2023-01-18T12:55:21.453Z,77.60
2023-01-18T12:57:54.078Z,77.20
2023-01-18T13:00:27.473Z,77.10
2023-01-18T13:03:00.412Z,76.92
2023-01-18T13:05:36.115Z,76.66
2023-01-18T13:08:09.233Z,76.91
2023-01-18T13:10:38.599Z,77.00
2023-01-18T13:13:08.276Z,77.41
2023-01-18T13:15:43.841Z,77.14
2023-01-18T13:18:17.943Z,77.43
2023-01-18T13:20:59.717Z,77.59
2023-01-18T13:23:37.436Z,77.29
2023-01-18T13:26:20.605Z,77.91
2023-01-18T13:28:48.754Z,78.21
2023-01-18T13:31:16.851Z,78.01
2023-01-18T13:33:46.749Z,78.29
2023-01-18T13:36:21.350Z,78.37
2023-01-18T13:38:51.897Z,78.42
2023-01-18T13:41:24.821Z,78.49
2023-01-18T13:44:07.765Z,78.48
2023-01-18T13:46:39.445Z,78.12
2023-01-18T13:49:37.771Z,78.51
2023-01-18T13:52:30.640Z,78.78
2023-01-18T13:55:04.568Z,79.12
2023-01-18T13:57:34.677Z,79.17
2023-01-18T14:00:03.425Z,79.26
2023-01-18T14:02:35.913Z,79.21
2023-01-18T14:05:08.710Z,79.28
2023-01-18T14:07:44.392Z,79.17
2023-01-18T14:10:27.326Z,79.55
2023-01-18T14:12:57.329Z,79.49
2023-01-18T14:15:30.659Z,79.65
2023-01-18T14:17:59.592Z,79.54
2023-01-18T14:20:49.930Z,79.52
2023-01-18T14:23:51.476Z,79.58
2023-01-18T14:26:21.000Z,80.20
2023-01-18T14:28:53.063Z,79.81
2023-01-18T14:31:29.151Z,79.62
2023-01-18T14:33:57.436Z,79.98
2023-01-18T14:36:27.064Z,80.01
2023-01-18T14:39:14.978Z,80.20
2023-01-18T14:41:45.082Z,80.64
2023-01-18T14:44:18.170Z,80.23
2023-01-18T14:46:51.199Z,80.64
2023-01-18T14:49:25.210Z,80.95
2023-01-18T14:51:54.564Z,80.94
2023-01-18T14:54:26.145Z,81.07
2023-01-18T14:57:02.473Z,80.90
2023-01-18T14:59:32.377Z,81.59
2023-01-18T15:02:02.975Z,81.83
2023-01-18T15:04:33.078Z,81.71
2023-01-18T15:07:04.805Z,81.86
2023-01-18T15:09:37.521Z,82.04
2023-01-18T15:12:08.632Z,82.33
2023-01-18T15:14:43.226Z,82.62
2023-01-18T15:17:21.352Z,82.86
2023-01-18T15:19:53.207Z,83.50
2023-01-18T15:22:25.929Z,83.63
2023-01-18T15:24:59.133Z,83.66
2023-01-18T15:27:30.496Z,83.68
2023-01-18T15:30:00.322Z,84.38
2023-01-18T15:32:30.897Z,84.67
2023-01-18T15:35:02.520Z,84.77
2023-01-18T15:37:33.778Z,84.66
2023-01-18T15:40:06.996Z,85.17
2023-01-18T15:42:38.940Z,84.93
2023-01-18T15:45:18.011Z,85.52
2023-01-18T15:47:50.031Z,85.58
2023-01-18T15:50:20.519Z,86.12
2023-01-18T15:52:54.033Z,86.32
2023-01-18T15:55:34.848Z,86.35
2023-01-18T15:58:05.736Z,86.86
2023-01-18T16:00:38.829Z,86.79
2023-01-18T16:03:06.904Z,87.49
2023-01-18T16:05:34.846Z,87.39
2023-01-18T16:08:22.949Z,87.43
2023-01-18T16:10:57.556Z,88.17
2023-01-18T16:13:33.206Z,88.30
2023-01-18T16:16:20.315Z,88.36
2023-01-18T16:18:51.829Z,88.48
2023-01-18T16:21:27.539Z,88.92
2023-01-18T16:23:57.989Z,89.20
2023-01-18T16:26:31.499Z,89.27
2023-01-18T16:29:07.842Z,89.96
2023-01-18T16:31:39.820Z,90.02
2023-01-18T16:34:20.927Z,90.21
2023-01-18T16:36:49.334Z,90.16
2023-01-18T16:39:17.200Z,90.38
2023-01-18T16:41:53.306Z,90.18
2023-01-18T16:44:22.191Z,90.13
2023-01-18T16:46:50.841Z,90.82
2023-01-18T16:49:18.854Z,90.72
2023-01-18T16:51:47.558Z,91.54
2023-01-18T16:54:15.734Z,91.68
2023-01-18T16:56:46.135Z,91.60
2023-01-18T16:59:21.729Z,91.28
2023-01-18T17:01:50.266Z,92.15
2023-01-18T17:04:18.609Z,91.87
2023-01-18T17:06:46.510Z,92.04
2023-01-18T17:09:23.624Z,92.72
2023-01-18T17:11:51.936Z,92.62
2023-01-18T17:14:22.282Z,92.57
2023-01-18T17:16:50.784Z,93.01
2023-01-18T17:19:21.475Z,93.35
2023-01-18T17:21:50.180Z,93.68
2023-01-18T17:24:20.670Z,93.61
2023-01-18T17:26:48.622Z,93.11
2023-01-18T17:29:18.679Z,93.90
2023-01-18T17:31:52.871Z,93.38
2023-01-18T17:34:27.812Z,93.95
2023-01-18T17:36:58.680Z,93.68
2023-01-18T17:39:42.428Z,93.96
2023-01-18T17:42:19.237Z,94.09
2023-01-18T17:44:50.606Z,94.47
2023-01-18T17:47:20.027Z,94.33
2023-01-18T17:49:47.847Z,94.06
2023-01-18T17:52:15.744Z,94.13
2023-01-18T17:54:43.761Z,95.06
2023-01-18T17:57:11.832Z,94.65
2023-01-18T17:59:39.731Z,94.57
2023-01-18T18:02:07.634Z,94.96
2023-01-18T18:04:37.175Z,95.02
2023-01-18T18:07:05.236Z,95.37
2023-01-18T18:09:38.186Z,95.17
2023-01-18T18:12:06.807Z,94.95
2023-01-18T18:14:35.164Z,95.61
2023-01-18T18:17:03.532Z,95.98
2023-01-18T18:19:32.439Z,95.65
2023-01-18T18:22:04.630Z,95.36
2023-01-18T18:24:32.689Z,95.37
2023-01-18T18:27:02.120Z,95.38
2023-01-18T18:29:31.159Z,96.05
2023-01-18T18:31:59.327Z,95.84
2023-01-18T18:34:27.477Z,96.17
2023-01-18T18:36:55.409Z,95.87
2023-01-18T18:39:24.814Z,96.06
2023-01-18T18:41:53.039Z,96.57
2023-01-18T18:44:20.973Z,96.31
2023-01-18T18:46:49.090Z,96.84
2023-01-18T18:49:17.084Z,96.64
2023-01-18T18:51:45.059Z,96.34
2023-01-18T18:54:13.393Z,96.42
2023-01-18T18:56:43.043Z,97.05
2023-01-18T18:59:11.127Z,97.01
2023-01-18T19:01:39.107Z,96.90
2023-01-18T19:04:07.057Z,97.35
2023-01-18T19:06:35.544Z,96.63
2023-01-18T19:09:05.413Z,96.76
2023-01-18T19:11:33.851Z,97.17
2023-01-18T19:14:04.302Z,97.66
2023-01-18T19:16:32.180Z,97.73
2023-01-18T19:19:00.012Z,97.44
2023-01-18T19:21:28.321Z,97.45
2023-01-18T19:23:56.302Z,97.45
2023-01-18T19:26:24.134Z,97.65
2023-01-18T19:28:52.197Z,98.08
2023-01-18T19:31:21.472Z,97.60
2023-01-18T19:33:49.533Z,97.77
2023-01-18T19:36:17.810Z,97.57
2023-01-18T19:38:52.552Z,98.39
2023-01-18T19:41:24.821Z,98.49
2023-01-18T19:43:52.702Z,98.41
2023-01-18T19:46:22.385Z,98.56
2023-01-18T19:48:50.398Z,98.50
2023-01-18T19:51:22.907Z,98.11
2023-01-18T19:53:51.605Z,98.75
2023-01-18T19:56:19.509Z,98.39
2023-01-18T19:58:47.461Z,98.66
2023-01-18T20:01:30.242Z,98.49
2023-01-18T20:04:04.415Z,98.74
2023-01-18T20:06:32.581Z,98.31
2023-01-18T20:09:00.539Z,98.79
2023-01-18T20:11:28.403Z,98.47
2023-01-18T20:13:57.002Z,98.33
2023-01-18T20:16:25.098Z,99.03
2023-01-18T20:18:52.970Z,98.59
2023-01-18T20:21:22.560Z,98.30
2023-01-18T20:23:50.669Z,98.82
2023-01-18T20:26:34.825Z,98.99
2023-01-18T20:29:06.539Z,98.78
2023-01-18T20:31:36.342Z,98.38
2023-01-18T20:34:05.191Z,98.63
2023-01-18T20:36:36.792Z,98.90
2023-01-18T20:39:05.802Z,98.78
2023-01-18T20:41:33.668Z,99.49
2023-01-18T20:44:01.701Z,99.09
2023-01-18T20:46:29.695Z,99.13
2023-01-18T20:48:57.593Z,99.79
2023-01-18T20:51:25.611Z,99.71
2023-01-18T20:53:54.909Z,99.58
2023-01-18T20:56:29.290Z,99.71
2023-01-18T20:58:58.105Z,99.53
2023-01-18T21:01:31.637Z,99.30
2023-01-18T21:04:01.249Z,99.82
2023-01-18T21:06:29.866Z,99.75
2023-01-18T21:09:00.382Z,100.00
2023-01-18T21:11:29.353Z,100.00
2023-01-18T21:13:59.994Z,99.91
2023-01-18T21:16:28.656Z,100.00
2023-01-18T21:18:59.137Z,100.00
2023-01-18T21:21:29.395Z,100.00
2023-01-18T21:23:57.386Z,100.00
2023-01-18T21:26:26.741Z,100.00
2023-01-18T21:28:54.755Z,100.00
2023-01-18T21:31:23.100Z,100.00
2023-01-18T21:33:51.196Z,100.00
2023-01-18T21:36:20.159Z,100.00
2023-01-18T21:38:48.164Z,100.00
2023-01-18T21:41:34.670Z,100.00
2023-01-18T21:44:21.624Z,100.00
2023-01-18T21:46:51.332Z,100.00
2023-01-18T21:49:54.907Z,100.00
2023-01-18T21:52:46.727Z,100.00
2023-01-18T21:55:16.355Z,100.00
2023-01-18T21:57:44.388Z,100.00
2023-01-18T22:00:14.750Z,100.00
2023-01-18T22:02:42.746Z,100.00
2023-01-18T22:05:10.924Z,100.00
2023-01-18T22:07:38.847Z,100.00
2023-01-18T22:10:07.458Z,100.00
2023-01-18T22:12:36.511Z,100.00
2023-01-18T22:15:05.259Z,100.00
2023-01-18T22:17:34.614Z,100.00
2023-01-18T22:20:02.507Z,100.00
2023-01-18T22:22:30.456Z,100.00
2023-01-18T22:25:00.204Z,100.00
2023-01-18T22:27:28.359Z,100.00
2023-01-18T22:29:56.331Z,100.00
2023-01-18T22:32:24.284Z,100.00
2023-01-18T22:34:53.752Z,100.00
2023-01-18T22:37:21.851Z,100.00
2023-01-18T22:39:50.499Z,100.00
2023-01-18T22:42:19.016Z,100.00
2023-01-18T22:44:47.059Z,100.00
2023-01-18T22:47:15.106Z,100.00
2023-01-18T22:49:42.923Z,100.00
2023-01-18T22:52:12.255Z,100.00
2023-01-18T22:54:40.199Z,100.00
2023-01-18T22:57:08.054Z,100.00
2023-01-18T22:59:36.020Z,100.00
2023-01-18T23:02:03.967Z,100.00
2023-01-18T23:04:34.400Z,100.00
2023-01-18T23:07:02.459Z,100.00
2023-01-18T23:09:32.193Z,100.00
2023-01-18T23:12:00.089Z,100.00
2023-01-18T23:14:45.630Z,100.00
2023-01-18T23:17:31.280Z,100.00
2023-01-18T23:19:59.212Z,100.00
2023-01-18T23:22:27.609Z,100.00
2023-01-18T23:24:56.830Z,100.00
2023-01-18T23:27:25.269Z,100.00
2023-01-18T23:29:57.235Z,100.00
2023-01-18T23:32:28.128Z,100.00
2023-01-18T23:34:56.201Z,100.00
2023-01-18T23:37:24.620Z,100.00
2023-01-18T23:40:09.776Z,100.00
2023-01-18T23:42:56.608Z,100.00
2023-01-18T23:45:41.880Z,100.00
2023-01-18T23:48:29.602Z,100.00
2023-01-18T23:51:14.793Z,100.00
2023-01-18T23:54:00.433Z,100.00
2023-01-18T23:56:29.136Z,100.00
2023-01-18T23:58:58.867Z,100.00
